Terminal Aerodrome Forecast
Issued by NWS Mt. Holly, NJ

Home | Current Version | Previous Version | Text Only | Print | Product List | Glossary On
Versions: 1 2 3 4 5 6 7 8 9 10 11 12 13 14 15 16 17 18 19 20 21 22 23 24
416
FTUS41 KPHI 271124
TAFACY
TAF
KACY 271124Z 2712/2812 12006KT 1/2SM FG VV002
     FM271500 21006KT 4SM BR OVC005
      TEMPO 2715/2718 -SHRA BKN020
     FM271800 23010KT P6SM BKN020 BKN200
     FM272100 23006KT P6SM VCSH BKN050
     FM280700 VRB02KT 3/4SM -SHRA BR OVC010=

USA.gov is the U.S. government's official web portal to all federal, state and local government web resources and services.